Silva Campos, Brazil
Current Conditions -  °F | °C
As of 10:45 PM on Friday 28 Nov 2014 (Local Time) from SBLS Reporting Station
Broken Clouds Broken Clouds  
Wind Chill: 68°   Ceiling: 7000
Heat Index: 68°   Visibility: 6mi
Dew Point: 64°   Wind: 6mph
Humidity: 88%   Direction: 170°S
Pressure: 30.12"   Gusts: NA
Location:  19.1°S, 44.93°W
Report Text: SBLS 290045Z 17005KT 9999 FEW007 SCT023 BKN070 20/18 Q1020
Loading
Personal Weather Stations






























Interactive Weather Map New forecast layout! Learn more

10-Day Weather Forecast

Advertisements
Track Severe Weather on mobile